Latest Weather Observations for Birdsville

IDQ60801

Issued at 10:02 pm EST Tuesday 28 February 2017 (issued every 30 minutes, with the page automatically refreshed every 10 minutes)

About weather observations | Map of weather stations | Latest weather observations for QLD | Other Formats
Station Details ID: 038026 Name: BIRDSVILLE AIRPORT Lat: -25.90 Lon: 139.35 Height: 46.6 m
Data from the previous 72 hours. | See also: Recent months at Birdsville
Date/Time
EST
Temp
°C
App
Temp
°C
Dew
Point
°C
Rel
Hum
%
Delta-T
°C
Wind Press
QNH
hPa
Press
MSL
hPa
Rain since
9am
mm
Dir  Spd
km/h
Gust
km/h
Spd
kts
Gust
kts
28/10:00pm 35.5 30.6 8.3 19 15.4 SE 24 32 13 17 1009.8 1009.5 0.0
28/09:30pm 35.9 31.1 8.7 19 15.5 SE 24 30 13 16 1009.4 1009.1 0.0
28/09:00pm 36.3 32.3 9.0 19 15.7 SE 20 24 11 13 1009.1 1008.8 0.0
28/08:30pm 36.8 33.7 10.2 20 15.6 SE 17 19 9 10 1008.8 1008.5 0.0
28/08:00pm 37.6 33.9 10.0 19 16.2 SE 20 26 11 14 1008.2 1007.9 0.0
28/07:30pm 38.1 33.7 10.5 19 16.3 SE 24 30 13 16 1007.9 1007.6 0.0
28/07:00pm 38.8 35.7 10.2 18 16.9 ESE 17 24 9 13 1007.6 1007.3 0.0
28/06:30pm 39.5 36.0 10.8 18 17.1 ESE 20 26 11 14 1007.3 1007.0 0.0
28/06:00pm 39.4 36.4 10.7 18 17.1 E 17 20 9 11 1007.1 1006.8 0.0
28/05:30pm 39.9 36.2 10.2 17 17.6 SE 20 30 11 16 1006.9 1006.6 0.0
28/05:00pm 40.6 37.3 10.8 17 17.9 SE 19 28 10 15 1006.9 1006.6 0.0
28/04:30pm 40.0 36.5 10.3 17 17.6 ESE 19 26 10 14 1007.0 1006.7 0.0
28/04:00pm 40.4 38.0 11.5 18 17.5 SE 15 26 8 14 1007.0 1006.7 0.0
28/03:30pm 41.0 38.0 12.0 18 17.7 ENE 19 28 10 15 1007.3 1007.0 0.0
28/03:00pm 40.4 36.6 12.3 19 17.2 E 24 41 13 22 1007.6 1007.3 0.0
28/02:30pm 41.0 38.1 12.8 19 17.4 NE 20 35 11 19 1007.8 1007.5 0.0
28/02:00pm 40.8 38.0 12.6 19 17.4 E 19 30 10 16 1008.3 1008.0 0.0
28/01:30pm 40.1 37.2 12.8 19 16.8 E 20 33 11 18 1008.7 1008.4 0.0
28/01:00pm 39.7 36.6 13.3 21 16.4 ENE 22 37 12 20 1009.2 1008.9 0.0
28/12:30pm 39.3 36.3 13.7 22 15.9 ENE 22 37 12 20 1009.7 1009.4 0.0
28/12:00pm 38.2 34.7 13.4 23 15.3 NE 24 37 13 20 1010.0 1009.7 0.0
28/11:30am 37.6 33.8 13.6 24 14.8 ENE 26 33 14 18 1010.4 1010.1 0.0
28/11:00am 36.7 32.7 14.1 26 14.0 ENE 28 37 15 20 1010.7 1010.4 0.0
28/10:30am 37.1 33.2 14.4 26 14.1 ENE 28 39 15 21 1011.0 1010.7 0.0
28/10:00am 35.9 31.6 14.5 27 13.3 ENE 30 39 16 21 1011.0 1010.7 0.0
28/09:30am 35.1 30.4 14.4 29 12.8 ENE 32 41 17 22 1010.9 1010.6 0.0
28/09:00am 34.4 30.1 14.3 30 12.4 ENE 30 41 16 22 1010.9 1010.6 0.0
28/08:30am 33.3 28.8 13.9 31 11.8 ENE 30 41 16 22 1010.7 1010.4 0.0
28/08:00am 32.1 28.3 12.3 29 11.7 E 24 33 13 18 1010.6 1010.3 0.0
28/07:30am 31.1 27.6 11.0 29 11.6 E 20 26 11 14 1010.2 1009.9 0.0
28/07:00am 30.5 26.7 9.9 28 11.7 E 20 26 11 14 1009.9 1009.6 0.0
28/06:30am 30.0 26.2 9.0 27 11.7 ESE 19 24 10 13 1009.5 1009.2 0.0
28/06:00am 30.3 26.3 9.2 27 11.8 ESE 20 24 11 13 1009.1 1008.8 0.0
28/05:30am 30.0 26.6 9.0 27 11.7 ESE 17 22 9 12 1008.8 1008.5 0.0
28/05:00am 28.0 24.9 7.3 27 11.1 ESE 13 15 7 8 1008.6 1008.3 0.0
28/04:30am 26.8 23.4 4.0 23 11.4 SE 11 13 6 7 1008.4 1008.1 0.0
28/04:00am 26.7 22.7 2.6 21 11.8 SE 13 13 7 7 1008.3 1008.0 0.0
28/03:30am 26.8 22.8 0.5 18 12.4 S 11 13 6 7 1008.2 1007.9 0.0
28/03:00am 26.8 22.7 -0.3 17 12.6 S 11 13 6 7 1008.2 1007.9 0.0
28/02:30am 27.1 22.5 -0.9 16 12.9 SSW 13 13 7 7 1008.3 1008.0 0.0
28/02:00am 26.2 21.9 -1.6 16 12.6 SSW 11 13 6 7 1008.5 1008.2 0.0
28/01:30am 26.5 22.2 -1.3 16 12.7 S 11 13 6 7 1008.9 1008.6 0.0
28/01:00am 26.7 22.3 -2.1 15 13.0 SSW 11 11 6 6 1009.2 1008.9 0.0
28/12:30am 28.2 24.4 -0.9 15 13.5 SSW 9 11 5 6 1009.3 1009.0 0.0
28/12:00am 27.8 23.4 -2.1 14 13.6 SSW 11 11 6 6 1009.5 1009.2 0.0
 
Date/Time
EST
Temp
°C
App
Temp
°C
Dew
Point
°C
Rel
Hum
%
Delta-T
°C
Wind Press
QNH
hPa
Press
MSL
hPa
Rain since
9am
mm
Dir  Spd
km/h
Gust
km/h
Spd
kts
Gust
kts
27/11:30pm 27.9 23.6 -2.0 14 13.6 SW 11 11 6 6 1009.8 1009.5 0.0
27/11:00pm 28.8 24.5 -1.3 14 14.0 SW 11 13 6 7 1009.8 1009.5 0.0
27/10:30pm 29.4 24.8 -0.9 14 14.2 SW 13 13 7 7 1009.7 1009.4 0.0
27/10:00pm 29.9 25.2 -1.5 13 14.6 SW 13 13 7 7 1009.6 1009.3 0.0
27/09:30pm 30.3 25.7 -1.2 13 14.8 SW 13 15 7 8 1009.3 1009.0 0.0
27/09:00pm 31.3 26.6 -1.5 12 15.5 SW 13 13 7 7 1009.1 1008.8 0.0
27/08:30pm 32.7 28.0 -1.6 11 16.3 SW 13 15 7 8 1008.8 1008.5 0.0
27/08:00pm 34.1 29.4 -1.8 10 17.2 SSW 13 15 7 8 1008.7 1008.4 0.0
27/07:30pm 35.9 31.2 -1.9 9 18.2 SSW 13 17 7 9 1008.4 1008.1 0.0
27/07:00pm 37.6 32.1 -2.2 8 19.4 SSW 17 20 9 11 1008.1 1007.8 0.0
27/06:30pm 38.3 33.0 -3.5 7 20.0 S 15 20 8 11 1007.9 1007.6 0.0
27/06:00pm 39.1 33.9 -2.9 7 20.4 WSW 15 22 8 12 1007.8 1007.5 0.0
27/05:30pm 39.0 33.0 -3.0 7 20.3 SSW 19 32 10 17 1007.7 1007.4 0.0
27/05:00pm 39.3 34.9 -2.8 7 20.5 WSW 11 17 6 9 1007.7 1007.4 0.0
27/04:30pm 39.7 33.8 -2.5 7 20.7 SW 19 28 10 15 1007.8 1007.5 0.0
27/04:00pm 40.1 34.6 -2.2 7 20.9 WSW 17 26 9 14 1007.9 1007.6 0.0
27/03:30pm 39.3 33.9 -1.0 8 20.2 SSW 17 24 9 13 1008.2 1007.9 0.0
27/03:00pm 39.6 34.4 -2.6 7 20.7 WSW 15 24 8 13 1008.6 1008.3 0.0
27/02:30pm 38.9 35.0 -1.3 8 20.0 SSW 9 17 5 9 1008.9 1008.6 0.0
27/02:00pm 38.5 34.4 0.0 9 19.5 SSW 11 20 6 11 1009.2 1008.9 0.0
27/01:30pm 38.8 34.2 -1.3 8 19.9 W 13 24 7 13 1009.5 1009.2 0.0
27/01:00pm 37.9 32.6 -0.4 9 19.2 SSW 17 35 9 19 1010.0 1009.7 0.0
27/12:30pm 37.0 32.8 -1.1 9 18.8 S 11 19 6 10 1010.6 1010.3 0.0
27/12:00pm 36.8 32.8 0.2 10 18.4 SE 11 17 6 9 1010.9 1010.6 0.0
27/11:30am 35.9 32.9 4.2 14 16.9 SE 9 17 5 9 1011.2 1010.9 0.0
27/11:00am 34.6 31.0 5.1 16 15.8 SSE 13 19 7 10 1011.4 1011.1 0.0
27/10:30am 33.5 29.8 4.2 16 15.4 SSE 13 17 7 9 1011.7 1011.4 0.0
27/10:00am 31.3 26.9 2.5 16 14.5 S 15 20 8 11 1011.9 1011.6 0.0
27/09:30am 29.6 24.8 2.8 18 13.4 SSE 17 22 9 12 1012.1 1011.8 0.0
27/09:00am 28.2 22.9 1.7 18 12.9 SSE 19 24 10 13 1012.1 1011.8 0.0
27/08:30am 26.6 21.1 1.8 20 12.0 SSE 20 26 11 14 1012.1 1011.8 0.0
27/08:00am 24.2 19.2 1.2 22 10.8 SSW 17 20 9 11 1011.8 1011.5 0.0
27/07:30am 21.9 17.1 0.4 24 9.7 SW 15 17 8 9 1011.4 1011.1 0.0
27/07:00am 20.6 16.2 0.4 26 9.1 SW 13 15 7 8 1011.3 1011.0 0.0
27/06:30am 19.6 15.8 -0.4 26 8.7 SW 9 9 5 5 1011.2 1010.9 0.0
27/06:00am 20.4 16.4 0.3 26 9.0 SW 11 13 6 7 1010.8 1010.5 0.0
27/05:30am 21.6 16.9 0.8 25 9.5 SW 15 15 8 8 1010.7 1010.4 0.0
27/05:00am 22.4 18.1 0.9 24 9.9 SW 13 15 7 8 1010.5 1010.2 0.0
27/04:30am 23.9 18.7 0.3 21 10.8 SSW 17 22 9 12 1010.4 1010.1 0.0
27/04:00am 25.3 19.5 2.1 22 11.2 S 22 30 12 16 1010.3 1010.0 0.0
27/03:30am 25.4 19.8 1.5 21 11.4 S 20 28 11 15 1010.3 1010.0 0.0
27/03:00am 25.9 20.4 1.9 21 11.5 S 20 28 11 15 1010.4 1010.1 0.0
27/02:30am 26.2 20.3 1.5 20 11.8 S 22 30 12 16 1010.6 1010.3 0.0
27/02:00am 26.3 20.4 1.6 20 11.9 S 22 30 12 16 1010.8 1010.5 0.0
27/01:30am 26.6 20.6 1.1 19 12.1 S 22 28 12 15 1011.0 1010.7 0.0
27/01:00am 27.1 20.7 0.8 18 12.5 S 24 32 13 17 1011.4 1011.1 0.0
27/12:30am 27.8 21.3 0.5 17 13.0 S 24 33 13 18 1011.5 1011.2 0.0
27/12:00am 28.9 22.3 -0.3 15 13.8 S 24 32 13 17 1011.5 1011.2 0.0
 
Date/Time
EST
Temp
°C
App
Temp
°C
Dew
Point
°C
Rel
Hum
%
Delta-T
°C
Wind Press
QNH
hPa
Press
MSL
hPa
Rain since
9am
mm
Dir  Spd
km/h
Gust
km/h
Spd
kts
Gust
kts
26/11:30pm 29.8 23.2 -0.5 14 14.3 S 24 37 13 20 1011.5 1011.2 0.0
26/11:00pm 30.1 23.8 -1.3 13 14.7 S 22 28 12 15 1011.2 1010.9 0.0
26/10:30pm 30.5 24.6 -1.0 13 14.9 S 20 26 11 14 1011.2 1010.9 0.0
26/10:00pm 31.5 25.4 -2.5 11 15.8 S 20 28 11 15 1011.1 1010.8 0.0
26/09:30pm 31.2 25.6 -2.7 11 15.6 S 17 20 9 11 1010.7 1010.4 0.0
26/09:00pm 31.8 26.1 -3.5 10 16.1 S 17 20 9 11 1010.3 1010.0 0.0
26/08:30pm 31.9 27.0 -3.5 10 16.2 SSW 13 15 7 8 1010.0 1009.7 0.0
26/08:00pm 33.2 28.2 -3.9 9 17.0 SSW 13 17 7 9 1009.5 1009.2 0.0
26/07:30pm 34.6 29.2 -4.4 8 17.9 SSW 15 19 8 10 1009.2 1008.9 0.0
26/07:00pm 36.0 29.4 -3.4 8 18.6 S 22 26 12 14 1009.0 1008.7 0.0
26/06:30pm 37.0 30.9 -2.7 8 19.1 SSW 20 28 11 15 1008.8 1008.5 0.0
26/06:00pm 37.6 31.5 -2.2 8 19.4 SSW 20 30 11 16 1008.8 1008.5 0.0
26/05:30pm 37.4 31.3 -2.4 8 19.2 S 20 30 11 16 1008.7 1008.4 0.0
26/05:00pm 38.1 32.2 -1.9 8 19.6 S 19 30 10 16 1008.8 1008.5 0.0
26/04:30pm 38.0 32.0 -1.9 8 19.5 SSW 20 30 11 16 1008.8 1008.5 0.0
26/04:00pm 38.5 32.9 0.0 9 19.5 SSW 19 32 10 17 1008.9 1008.6 0.0
26/03:30pm 37.8 32.1 -0.5 9 19.1 SSW 19 32 10 17 1009.0 1008.7 0.0
26/03:00pm 38.1 32.5 -0.3 9 19.3 SE 19 32 10 17 1009.2 1008.9 0.0
26/02:30pm 37.8 33.5 1.0 10 18.8 SSE 13 22 7 12 1009.6 1009.3 0.0
26/02:00pm 37.5 32.4 0.7 10 18.7 SSE 17 22 9 12 1010.1 1009.8 0.0
26/01:30pm 37.4 31.7 0.7 10 18.6 S 20 33 11 18 1010.4 1010.1 0.0
26/01:00pm 36.1 30.5 1.0 11 17.8 SE 20 32 11 17 1010.9 1010.6 0.0
26/12:30pm 36.6 31.2 1.4 11 18.0 SSE 19 28 10 15 1011.2 1010.9 0.0
26/12:00pm 35.7 30.0 0.7 11 17.6 SSE 20 28 11 15 1011.5 1011.2 0.0
26/11:30am 34.7 29.1 1.1 12 16.9 SE 20 28 11 15 1011.8 1011.5 0.0
26/11:00am 33.8 28.3 1.6 13 16.2 SSE 20 28 11 15 1012.1 1011.8 0.0
26/10:30am 31.5 26.0 1.8 15 14.8 SSE 20 28 11 15 1012.4 1012.1 0.0
26/10:00am 30.9 25.1 2.2 16 14.3 SSE 22 30 12 16 1012.6 1012.3 0.0
26/09:30am 29.3 23.0 1.7 17 13.5 SE 24 32 13 17 1012.7 1012.4 0.0
26/09:00am 27.9 22.2 2.9 20 12.4 S 22 30 12 16 1012.5 1012.2 0.0
26/08:30am 26.2 20.2 3.5 23 11.3 S 24 30 13 16 1012.5 1012.2 0.0
26/08:00am 24.7 19.1 3.4 25 10.4 S 22 32 12 17 1012.6 1012.3 0.0
26/07:30am 24.1 18.5 3.4 26 10.1 S 22 26 12 14 1012.4 1012.1 0.0
26/07:00am 23.5 18.5 3.4 27 9.8 S 19 24 10 13 1012.3 1012.0 0.0
26/06:30am 23.5 18.6 4.0 28 9.6 S 19 22 10 12 1012.0 1011.7 0.0
26/06:00am 23.8 19.2 3.7 27 9.8 S 17 22 9 12 1011.7 1011.4 0.0
26/05:30am 24.1 19.6 4.0 27 9.9 S 17 20 9 11 1011.5 1011.2 0.0
26/05:00am 24.6 19.6 4.4 27 10.1 S 20 26 11 14 1011.2 1010.9 0.0
26/04:30am 24.8 19.8 4.5 27 10.2 S 20 24 11 13 1011.2 1010.9 0.0
26/04:00am 25.1 20.3 4.8 27 10.2 S 19 24 10 13 1011.1 1010.8 0.0
26/03:30am 25.5 20.6 5.1 27 10.4 S 20 24 11 13 1011.2 1010.9 0.0
26/03:00am 26.1 20.8 5.1 26 10.7 S 22 30 12 16 1011.1 1010.8 0.0
26/02:30am 26.7 21.5 5.6 26 10.9 S 22 30 12 16 1011.2 1010.9 0.0
26/02:00am 27.2 22.0 5.5 25 11.2 S 22 35 12 19 1011.4 1011.1 0.0
26/01:30am 27.9 21.6 5.5 24 11.6 S 28 35 15 19 1011.3 1011.0 0.0
26/01:00am 28.6 22.6 5.5 23 12.1 S 26 35 14 19 1011.4 1011.1 0.0
26/12:30am 29.1 22.3 5.2 22 12.4 S 30 35 16 19 1011.4 1011.1 0.0
26/12:00am 30.2 22.9 5.5 21 13.0 S 33 46 18 25 1011.5 1011.2 0.0
 
Date/Time
EST
Temp
°C
App
Temp
°C
Dew
Point
°C
Rel
Hum
%
Delta-T
°C
Wind Press
QNH
hPa
Press
MSL
hPa
Rain since
9am
mm
Dir  Spd
km/h
Gust
km/h
Spd
kts
Gust
kts
25/11:30pm 30.5 23.8 5.7 21 13.1 S 30 37 16 20 1011.6 1011.3 0.0
25/11:00pm 31.1 23.8 5.5 20 13.5 S 33 44 18 24 1011.6 1011.3 0.0
25/10:30pm 31.8 24.5 5.3 19 14.0 S 33 44 18 24 1011.6 1011.3 0.0

Other Formats:

Comma delimited format used in spreadsheet applications
http://www.bom.gov.au/fwo/IDQ60801/IDQ60801.95482.axf

JavaScript Object Notation format (JSON) in row-major order
http://www.bom.gov.au/fwo/IDQ60801/IDQ60801.95482.json